Estación Meteorológica Peña el Pijo (Robertgarden) [ 11/17/17 23:48:12 CET ]

Fecha Hora Presion(HPa) Temp (°C) Humedad % Rocio (°C) Viento ( m/s) Direccion Lluvia 1Hora(mm) Lluvia 24H(mm) LLuvia Total(mm)
2017-Aug-24 01:01:43 1013.500 16.9 51 6.7         1439.00
2017-Aug-24 02:01:55 1013.000 16.7 52 6.8         1439.00
2017-Aug-24 03:01:11 1012.900 15.9 55 6.8         1439.00
2017-Aug-24 04:01:10 1012.700 14.9 60 7.2         1439.00
2017-Aug-24 05:01:08 1012.800 14.2 63 7.2         1439.00
2017-Aug-24 06:01:06 1012.500 13.5 66 7.2         1439.00
2017-Aug-24 07:01:39 1012.800 13.3 69 7.7         1439.00
2017-Aug-24 08:01:38 1013.000 13.0 71 7.9         1439.00
2017-Aug-24 09:01:47 1012.800 18.8 66 12.3         1439.00
2017-Aug-24 10:01:45 1012.900 27.5 48 15.7         1439.00
2017-Aug-24 11:01:35 1012.900 32.8 34 14.8         1439.00
2017-Aug-24 12:01:48 1013.000 34.0 26 11.6         1439.00
2017-Aug-24 13:01:33 1012.600 34.7 24 10.9         1439.00
2017-Aug-24 14:01:47 1012.300 34.3 24 10.6         1439.00
2017-Aug-24 15:01:29 1011.800 36.8 21 10.8 0.5 S     1439.00
2017-Aug-24 16:01:33 1012.000 32.4 21 7.2 2.8 S     1439.00
2017-Aug-24 17:01:52 1011.600 35.1 21 9.4 2.2 S     1439.00
2017-Aug-24 18:01:34 1011.800 33.3 25 10.4         1439.00
2017-Aug-24 19:01:56 1011.600 31.2 32 12.5         1439.00
2017-Aug-24 20:02:08 1011.800 28.7 38 12.9         1439.00
2017-Aug-24 21:01:51 1012.300 26.4 43 12.8         1439.00
2017-Aug-24 22:01:46 1013.300 23.7 47 11.7         1439.00
2017-Aug-24 23:01:50 1013.700 20.8 54 11.1         1439.00

Temperatura Máxima:36°    Temperatura Mínima:13°
Presión Máxima:1013.700 Hpa    Presión Mínima:1011.600 Hpa


Volver